createdAt,value
2022-12-11T00:01:35.870Z,95.72414
2022-12-11T00:06:37.309Z,93.87835
2022-12-11T00:11:38.990Z,92.43373
2022-12-11T00:16:40.545Z,93.87835
2022-12-11T00:21:42.118Z,103.17313
2022-12-11T00:26:43.687Z,115.58774
2022-12-11T00:31:45.136Z,116.54902
2022-12-11T00:36:46.706Z,110.48649
2022-12-11T00:41:48.340Z,110.48649
2022-12-11T00:46:49.812Z,109.14745
2022-12-11T00:51:51.314Z,102.35476
2022-12-11T00:56:52.902Z,98.77387
2022-12-11T01:01:54.353Z,104
2022-12-11T01:06:56.484Z,101.54476
2022-12-11T01:11:58.170Z,99.94937
2022-12-11T01:16:59.620Z,100.34518
2022-12-11T01:22:01.130Z,101.14286
2022-12-11T01:27:02.597Z,102.76289
2022-12-11T01:32:04.018Z,91.36842
2022-12-11T01:37:05.427Z,88.94118
2022-12-11T01:42:07.171Z,111.84741
2022-12-11T01:47:08.592Z,106.10526
2022-12-11T01:52:10.142Z,112.30601
2022-12-11T01:57:11.742Z,128.43114
2022-12-11T02:02:13.412Z,123.06977
2022-12-11T02:07:15.164Z,128.43114
2022-12-11T02:12:17.368Z,125.71091
2022-12-11T02:17:19.018Z,130.10272
2022-12-11T02:22:20.512Z,127.33333
2022-12-11T02:27:22.000Z,132.95706
2022-12-11T02:32:24.027Z,130.10272
2022-12-11T02:37:25.930Z,128.98498
2022-12-11T02:42:27.975Z,134.71207
2022-12-11T02:47:29.752Z,137.10345
2022-12-11T02:52:31.590Z,138.93671
2022-12-11T02:57:33.414Z,146.63158
2022-12-11T03:02:35.214Z,146.63158
2022-12-11T03:07:37.019Z,157.88889
2022-12-11T03:12:39.139Z,153.52381
2022-12-11T03:17:41.082Z,167.18841
2022-12-11T03:22:43.002Z,176.45283
2022-12-11T03:27:44.926Z,178.22053
2022-12-11T03:32:46.860Z,180.01533
2022-12-11T03:37:48.721Z,177.33333
2022-12-11T03:42:50.779Z,172.14815
2022-12-11T03:47:52.447Z,167.18841
2022-12-11T03:52:54.284Z,179.1145
2022-12-11T03:57:55.959Z,180.92308
2022-12-11T04:02:57.778Z,182.75969
2022-12-11T04:07:59.648Z,176.45283
2022-12-11T04:13:01.822Z,180.01533
2022-12-11T04:18:03.997Z,172.99628
2022-12-11T04:23:05.967Z,172.99628
2022-12-11T04:28:07.655Z,167.18841
2022-12-11T04:33:09.499Z,172.99628
2022-12-11T04:38:11.070Z,169.64103
2022-12-11T04:43:13.019Z,162.43972
2022-12-11T04:48:14.691Z,156.41379
2022-12-11T04:53:16.061Z,163.21708
2022-12-11T04:58:22.649Z,182.75969
2022-12-11T05:03:24.128Z,182.75969
2022-12-11T05:08:25.631Z,181.83784
2022-12-11T05:13:27.350Z,157.88889
2022-12-11T05:18:28.871Z,178.22053
2022-12-11T05:23:30.331Z,172.99628
2022-12-11T05:28:31.963Z,173.85075
2022-12-11T05:33:33.650Z,169.64103
2022-12-11T05:38:35.074Z,197.49794
2022-12-11T05:43:36.756Z,180.92308
2022-12-11T05:48:38.369Z,198.54545
2022-12-11T05:53:40.222Z,179.1145
2022-12-11T05:58:42.136Z,168.81752
2022-12-11T06:03:44.112Z,217.77778
2022-12-11T06:08:45.959Z,196.45902
2022-12-11T06:13:48.076Z,190.4
2022-12-11T06:18:49.923Z,240.15385
2022-12-11T06:23:51.708Z,255.11111
2022-12-11T06:28:53.518Z,248.9505
2022-12-11T06:33:55.367Z,256.69036
2022-12-11T06:38:57.175Z,273.41176
2022-12-11T06:43:59.219Z,308.49704
2022-12-11T06:49:01.124Z,290.06742
2022-12-11T06:54:02.864Z,294
2022-12-11T06:59:07.542Z,275.1828
2022-12-11T07:04:09.411Z,261.52577
2022-12-11T07:09:11.004Z,296
2022-12-11T07:14:12.742Z,333.87342
2022-12-11T07:19:14.193Z,354.66667
2022-12-11T07:24:15.654Z,407.15789
2022-12-11T07:29:17.083Z,400.2963
2022-12-11T07:34:18.565Z,377.80282
2022-12-11T07:39:19.977Z,304.23392
2022-12-11T07:44:21.813Z,417.84615
2022-12-11T07:49:23.364Z,351.94702
2022-12-11T07:54:24.900Z,509.13761
2022-12-11T07:59:26.557Z,553.90099
2022-12-11T08:04:28.107Z,776.43243
2022-12-11T08:09:29.619Z,547.92157
2022-12-11T08:14:31.406Z,644
2022-12-11T08:19:33.032Z,436.8
2022-12-11T08:24:34.795Z,553.90099
2022-12-11T08:29:37.216Z,824
2022-12-11T08:34:38.892Z,953.83607
2022-12-11T08:39:40.647Z,787.83562
2022-12-11T08:44:42.568Z,723.74684
2022-12-11T08:49:44.142Z,677.33333
2022-12-11T08:54:45.747Z,953.83607
2022-12-11T08:59:47.644Z,988.0678
2022-12-11T09:04:49.281Z,723.74684
2022-12-11T09:09:50.956Z,566.22222
2022-12-11T09:14:52.846Z,799.55556
2022-12-11T09:19:54.461Z,953.83607
2022-12-11T09:24:56.715Z,836.75362
2022-12-11T09:29:58.464Z,636.13483
2022-12-11T09:35:00.335Z,660.27907
2022-12-11T09:40:07.329Z,733.74359
2022-12-11T09:45:09.900Z,695.21951
2022-12-11T09:50:11.727Z,553.90099
2022-12-11T09:55:13.665Z,677.33333
2022-12-11T10:00:15.386Z,811.60563
2022-12-11T10:05:16.936Z,776.43243
2022-12-11T10:10:18.470Z,677.33333
2022-12-11T10:15:20.110Z,937.54839
2022-12-11T10:20:21.747Z,824
2022-12-11T10:30:39.531Z,660.27907
2022-12-11T10:35:41.135Z,519.70093
2022-12-11T10:40:42.641Z,644
2022-12-11T10:45:44.293Z,519.70093
2022-12-11T10:50:45.821Z,536.30769
2022-12-11T10:55:47.283Z,686.16867
2022-12-11T11:00:48.989Z,714
2022-12-11T11:05:50.509Z,636.13483
2022-12-11T11:10:51.941Z,849.88235
2022-12-11T11:15:53.567Z,620.92308
2022-12-11T11:20:55.083Z,525.13208
2022-12-11T11:25:56.823Z,494
2022-12-11T11:30:58.412Z,519.70093
2022-12-11T11:35:59.892Z,668.70588
2022-12-11T11:41:06.632Z,396.94118
2022-12-11T11:46:11.052Z,765.33333
2022-12-11T11:51:12.597Z,723.74684
2022-12-11T11:56:14.120Z,695.21951
2022-12-11T12:01:15.941Z,566.22222
2022-12-11T12:06:17.518Z,530.66667
2022-12-11T12:11:18.936Z,185.56863
2022-12-11T12:16:51.028Z,154.23891
2022-12-11T12:21:53.598Z,174.71161
2022-12-11T12:26:55.100Z,177.33333
2022-12-11T12:31:56.615Z,184.625
2022-12-11T12:36:58.109Z,193.39271
2022-12-11T12:42:05.658Z,184.625
2022-12-11T12:47:09.499Z,197.49794
2022-12-11T12:52:11.103Z,349.26316
2022-12-11T12:57:12.542Z,592.42105
2022-12-11T13:02:14.057Z,686.16867
2022-12-11T13:07:15.579Z,1106.26415
2022-12-11T13:12:17.011Z,824
2022-12-11T13:17:18.920Z,787.83562
2022-12-11T13:22:20.879Z,668.70588
2022-12-11T13:27:22.566Z,799.55556
2022-12-11T13:32:24.521Z,457.33333
2022-12-11T13:37:26.342Z,536.30769
2022-12-11T13:42:28.356Z,346.61438
2022-12-11T13:47:30.347Z,264.83333
2022-12-11T13:52:32.133Z,273.41176
2022-12-11T13:57:34.135Z,429.03937
2022-12-11T14:02:36.354Z,525.13208
2022-12-11T14:07:38.493Z,425.25
2022-12-11T14:12:40.286Z,421.51938
2022-12-11T14:17:45.887Z,448.91803
2022-12-11T14:22:50.296Z,387.16547
2022-12-11T14:27:51.904Z,390.37681
2022-12-11T14:32:53.323Z,599.31915
2022-12-11T14:37:55.136Z,695.21951
2022-12-11T14:43:00.177Z,368.82759
2022-12-11T14:48:02.596Z,542.05825
2022-12-11T14:53:04.544Z,811.60563
2022-12-11T14:58:06.306Z,937.54839
2022-12-11T15:03:07.855Z,891.69231
2022-12-11T15:08:09.692Z,1064
2022-12-11T15:13:11.508Z,937.54839
2022-12-11T15:18:13.359Z,877.33333
2022-12-11T15:23:18.656Z,787.83562
2022-12-11T15:28:20.456Z,636.13483
2022-12-11T15:33:22.073Z,765.33333
2022-12-11T15:38:23.521Z,660.27907
2022-12-11T15:43:25.093Z,677.33333
2022-12-11T15:48:27.033Z,660.27907
2022-12-11T15:53:28.431Z,547.92157
2022-12-11T15:58:29.920Z,470.49573
2022-12-11T16:03:31.731Z,396.94118
2022-12-11T16:08:33.504Z,414.22901
2022-12-11T16:13:35.366Z,393.63504
2022-12-11T16:18:37.256Z,417.84615
2022-12-11T16:23:38.982Z,566.22222
2022-12-11T16:28:40.892Z,686.16867
2022-12-11T16:33:42.631Z,585.66667
2022-12-11T16:38:49.803Z,652.04598
2022-12-11T16:43:55.077Z,668.70588
2022-12-11T16:48:56.984Z,695.21951
2022-12-11T16:53:58.756Z,652.04598
2022-12-11T16:59:00.431Z,652.04598
2022-12-11T17:04:01.976Z,695.21951
2022-12-11T17:09:03.596Z,714
2022-12-11T17:14:05.083Z,765.33333
2022-12-11T17:19:06.703Z,686.16867
2022-12-11T17:24:08.289Z,849.88235
2022-12-11T17:29:09.741Z,937.54839
2022-12-11T17:34:11.437Z,877.33333
2022-12-11T17:39:12.967Z,877.33333
2022-12-11T17:44:14.428Z,937.54839
2022-12-11T17:49:16.145Z,863.40299
2022-12-11T17:54:17.645Z,787.83562
2022-12-11T17:59:19.154Z,704.49383
2022-12-11T18:04:20.711Z,695.21951
2022-12-11T18:09:22.261Z,704.49383
2022-12-11T18:14:23.689Z,628.44444
2022-12-11T18:19:25.909Z,652.04598
2022-12-11T18:24:27.365Z,519.70093
2022-12-11T18:29:28.922Z,606.36559
2022-12-11T18:34:30.473Z,525.13208
2022-12-11T18:39:32.151Z,504
2022-12-11T18:44:33.813Z,509.13761
2022-12-11T18:49:35.567Z,547.92157
2022-12-11T18:54:37.177Z,509.13761
2022-12-11T18:59:38.656Z,466.0339
2022-12-11T19:04:40.119Z,479.65217
2022-12-11T19:09:46.184Z,448.91803
2022-12-11T19:14:49.738Z,466.0339
2022-12-11T19:19:51.647Z,414.22901
2022-12-11T19:24:53.480Z,384
2022-12-11T19:29:55.350Z,377.80282
2022-12-11T19:34:57.038Z,377.80282
2022-12-11T19:39:58.899Z,317.33333
2022-12-11T19:45:00.583Z,278.78261
2022-12-11T19:50:02.663Z,212.99563
2022-12-11T19:55:05.154Z,198.54545
2022-12-11T20:00:06.987Z,209.51724
2022-12-11T20:05:08.774Z,248.9505
2022-12-11T20:10:10.607Z,261.52577
2022-12-11T20:15:12.681Z,349.26316
2022-12-11T20:20:14.871Z,326.6087
2022-12-11T20:25:16.406Z,440.77419
2022-12-11T20:30:17.930Z,403.70149
2022-12-11T20:35:19.509Z,425.25
2022-12-11T20:40:20.929Z,432.88889
2022-12-11T20:45:22.404Z,377.80282
2022-12-11T20:50:24.264Z,319.60976
2022-12-11T20:55:26.183Z,288.13408
2022-12-11T21:00:28.039Z,294
2022-12-11T21:05:29.971Z,304.23392
2022-12-11T21:10:31.787Z,300.06936
2022-12-11T21:15:33.547Z,268.21053
2022-12-11T21:20:35.704Z,245.96078
2022-12-11T21:25:37.616Z,227.87097
2022-12-11T21:30:39.396Z,245.96078
2022-12-11T21:35:41.508Z,302.13953
2022-12-11T21:40:43.411Z,263.17098
2022-12-11T21:46:00.902Z,245.96078
2022-12-11T21:51:03.771Z,245.96078
2022-12-11T21:56:05.553Z,255.11111
2022-12-11T22:01:07.350Z,266.51309
2022-12-11T22:06:10.049Z,264.83333
2022-12-11T22:11:11.850Z,227.87097
2022-12-11T22:16:13.742Z,219
2022-12-11T22:21:15.590Z,212.99563
2022-12-11T22:26:17.368Z,216.56637
2022-12-11T22:31:19.309Z,205.01695
2022-12-11T22:36:20.894Z,205.01695
2022-12-11T22:41:22.694Z,211.82609
2022-12-11T22:46:24.328Z,211.82609
2022-12-11T22:51:26.302Z,205.01695
2022-12-11T22:56:28.111Z,202.82353
2022-12-11T23:01:29.555Z,219
2022-12-11T23:06:31.669Z,210.66667
2022-12-11T23:11:33.147Z,222.73303
2022-12-11T23:16:34.959Z,214.17544
2022-12-11T23:21:36.942Z,205.01695
2022-12-11T23:26:38.607Z,212.99563
2022-12-11T23:31:40.426Z,225.27854
2022-12-11T23:36:42.209Z,230.51163
2022-12-11T23:41:44.080Z,211.82609
2022-12-11T23:46:45.787Z,207.24786
2022-12-11T23:51:47.810Z,212.99563
2022-12-11T23:56:49.588Z,203.91561
